Weather at Muara Heliport

Public forecast

Using degrees Celsius for public forecast. Weather courtesy of forecast.io.

Closest aviation weather report (METAR) to Muara Heliport

Closest report is Brunei International Airport, 11.1 nm (20.5 km) WSW. Retrieved 2022/08/09 08:30 UTC (14 minutes ago):

WBSB 090830Z 30006KT 9999 TS SCT015 FEW016CB SCT140 BKN300 30/27 Q1006 TEMPO 7000 -TSRA

Closest aviation forecast (TAF) to Muara Heliport

Closest forecast is Brunei International Airport, 11.1 nm (20.5 km) WSW. Retrieved 2022/08/09 06:12 UTC (3 hours ago):

TAF WBSB 090450Z 0906/1012 33008KT 9999 FEW015 FEW016CB TEMPO 0910/0914 6000 -TSRA BECMG 0912/0914 23005KT FEW014 FEW015CB TEMPO 0914/0918 6000 -TSRA